sensor_id;sensor_type;location;lat;lon;timestamp;pressure;altitude;pressure_sealevel;temperature
65569;BMP180;52211;50.154;8.682;2022-11-20T00:01:46;99627.00;;;8.40
65569;BMP180;52211;50.154;8.682;2022-11-20T00:04:13;99626.00;;;8.40
65569;BMP180;52211;50.154;8.682;2022-11-20T00:06:42;99629.00;;;8.30
65569;BMP180;52211;50.154;8.682;2022-11-20T00:09:13;99630.00;;;8.30
65569;BMP180;52211;50.154;8.682;2022-11-20T00:11:40;99631.00;;;8.30
65569;BMP180;52211;50.154;8.682;2022-11-20T00:14:09;99628.00;;;8.30
65569;BMP180;52211;50.154;8.682;2022-11-20T00:16:39;99621.00;;;8.30
65569;BMP180;52211;50.154;8.682;2022-11-20T00:19:06;99616.00;;;8.30
65569;BMP180;52211;50.154;8.682;2022-11-20T00:21:39;99619.00;;;8.30
65569;BMP180;52211;50.154;8.682;2022-11-20T00:24:09;99622.00;;;8.30
65569;BMP180;52211;50.154;8.682;2022-11-20T00:26:48;99631.00;;;8.30
65569;BMP180;52211;50.154;8.682;2022-11-20T00:29:18;99625.00;;;8.30
65569;BMP180;52211;50.154;8.682;2022-11-20T00:31:47;99626.00;;;8.30
65569;BMP180;52211;50.154;8.682;2022-11-20T00:34:16;99634.00;;;8.30
65569;BMP180;52211;50.154;8.682;2022-11-20T00:36:43;99628.00;;;8.40
65569;BMP180;52211;50.154;8.682;2022-11-20T00:39:10;99613.00;;;8.40
65569;BMP180;52211;50.154;8.682;2022-11-20T00:41:37;99614.00;;;8.40
65569;BMP180;52211;50.154;8.682;2022-11-20T00:44:04;99616.00;;;8.40
65569;BMP180;52211;50.154;8.682;2022-11-20T00:46:33;99610.00;;;8.40
65569;BMP180;52211;50.154;8.682;2022-11-20T00:49:07;99597.00;;;8.40
65569;BMP180;52211;50.154;8.682;2022-11-20T00:51:36;99586.00;;;8.40
65569;BMP180;52211;50.154;8.682;2022-11-20T00:54:05;99598.00;;;8.40
65569;BMP180;52211;50.154;8.682;2022-11-20T00:56:34;99602.00;;;8.40
65569;BMP180;52211;50.154;8.682;2022-11-20T00:59:04;99602.00;;;8.40
65569;BMP180;52211;50.154;8.682;2022-11-20T01:01:33;99593.00;;;8.40
65569;BMP180;52211;50.154;8.682;2022-11-20T01:04:00;99592.00;;;8.40
65569;BMP180;52211;50.154;8.682;2022-11-20T01:06:36;99599.00;;;8.40
65569;BMP180;52211;50.154;8.682;2022-11-20T01:09:12;99604.00;;;8.30
65569;BMP180;52211;50.154;8.682;2022-11-20T01:11:44;99606.00;;;8.30
65569;BMP180;52211;50.154;8.682;2022-11-20T01:14:18;99611.00;;;8.30
65569;BMP180;52211;50.154;8.682;2022-11-20T01:16:49;99614.00;;;8.30
65569;BMP180;52211;50.154;8.682;2022-11-20T01:19:22;99600.00;;;8.30
65569;BMP180;52211;50.154;8.682;2022-11-20T01:21:55;99602.00;;;8.30
65569;BMP180;52211;50.154;8.682;2022-11-20T01:24:23;99610.00;;;8.30
65569;BMP180;52211;50.154;8.682;2022-11-20T01:26:53;99602.00;;;8.30
65569;BMP180;52211;50.154;8.682;2022-11-20T01:29:23;99604.00;;;8.30
65569;BMP180;52211;50.154;8.682;2022-11-20T01:31:53;99594.00;;;8.30
65569;BMP180;52211;50.154;8.682;2022-11-20T01:34:22;99591.00;;;8.30
65569;BMP180;52211;50.154;8.682;2022-11-20T01:36:50;99599.00;;;8.20
65569;BMP180;52211;50.154;8.682;2022-11-20T01:39:28;99592.00;;;8.20
65569;BMP180;52211;50.154;8.682;2022-11-20T01:41:56;99599.00;;;8.20
65569;BMP180;52211;50.154;8.682;2022-11-20T01:44:57;99580.00;;;8.20
65569;BMP180;52211;50.154;8.682;2022-11-20T01:47:44;99585.00;;;8.10
65569;BMP180;52211;50.154;8.682;2022-11-20T01:50:22;99586.00;;;8.10
65569;BMP180;52211;50.154;8.682;2022-11-20T01:53:03;99586.00;;;8.10
65569;BMP180;52211;50.154;8.682;2022-11-20T01:55:41;99597.00;;;8.10
65569;BMP180;52211;50.154;8.682;2022-11-20T01:58:11;99592.00;;;8.10
65569;BMP180;52211;50.154;8.682;2022-11-20T02:00:43;99593.00;;;8.10
65569;BMP180;52211;50.154;8.682;2022-11-20T02:03:17;99593.00;;;8.10
65569;BMP180;52211;50.154;8.682;2022-11-20T02:06:16;99598.00;;;8.10
65569;BMP180;52211;50.154;8.682;2022-11-20T02:08:45;99591.00;;;8.10
65569;BMP180;52211;50.154;8.682;2022-11-20T02:11:16;99579.00;;;8.10
65569;BMP180;52211;50.154;8.682;2022-11-20T02:13:42;99572.00;;;8.10
65569;BMP180;52211;50.154;8.682;2022-11-20T02:16:36;99589.00;;;8.10
65569;BMP180;52211;50.154;8.682;2022-11-20T02:24:31;99582.00;;;8.00
65569;BMP180;52211;50.154;8.682;2022-11-20T02:27:11;99574.00;;;8.00
65569;BMP180;52211;50.154;8.682;2022-11-20T02:29:51;99571.00;;;8.00
65569;BMP180;52211;50.154;8.682;2022-11-20T02:32:33;99574.00;;;8.00
65569;BMP180;52211;50.154;8.682;2022-11-20T02:37:52;99576.00;;;8.00
65569;BMP180;52211;50.154;8.682;2022-11-20T02:40:19;99572.00;;;8.00
65569;BMP180;52211;50.154;8.682;2022-11-20T02:42:55;99568.00;;;7.90
65569;BMP180;52211;50.154;8.682;2022-11-20T02:45:25;99566.00;;;7.90
65569;BMP180;52211;50.154;8.682;2022-11-20T02:47:54;99567.00;;;7.90
65569;BMP180;52211;50.154;8.682;2022-11-20T02:50:23;99563.00;;;7.90
65569;BMP180;52211;50.154;8.682;2022-11-20T02:52:55;99575.00;;;7.90
65569;BMP180;52211;50.154;8.682;2022-11-20T02:55:22;99574.00;;;7.90
65569;BMP180;52211;50.154;8.682;2022-11-20T02:57:51;99579.00;;;7.80
65569;BMP180;52211;50.154;8.682;2022-11-20T03:00:18;99582.00;;;7.80
65569;BMP180;52211;50.154;8.682;2022-11-20T03:02:47;99589.00;;;7.80
65569;BMP180;52211;50.154;8.682;2022-11-20T03:05:14;99588.00;;;7.80
65569;BMP180;52211;50.154;8.682;2022-11-20T03:07:46;99577.00;;;7.80
65569;BMP180;52211;50.154;8.682;2022-11-20T03:10:15;99572.00;;;7.80
65569;BMP180;52211;50.154;8.682;2022-11-20T03:12:42;99565.00;;;7.80
65569;BMP180;52211;50.154;8.682;2022-11-20T03:15:15;99569.00;;;7.70
65569;BMP180;52211;50.154;8.682;2022-11-20T03:17:45;99567.00;;;7.70
65569;BMP180;52211;50.154;8.682;2022-11-20T03:20:16;99563.00;;;7.70
65569;BMP180;52211;50.154;8.682;2022-11-20T03:22:43;99562.00;;;7.80
65569;BMP180;52211;50.154;8.682;2022-11-20T03:25:12;99549.00;;;7.70
65569;BMP180;52211;50.154;8.682;2022-11-20T03:27:39;99553.00;;;7.70
65569;BMP180;52211;50.154;8.682;2022-11-20T03:30:10;99566.00;;;7.70
65569;BMP180;52211;50.154;8.682;2022-11-20T03:32:37;99562.00;;;7.70
65569;BMP180;52211;50.154;8.682;2022-11-20T03:35:06;99571.00;;;7.80
65569;BMP180;52211;50.154;8.682;2022-11-20T03:37:35;99565.00;;;7.80
65569;BMP180;52211;50.154;8.682;2022-11-20T03:40:07;99571.00;;;7.80
65569;BMP180;52211;50.154;8.682;2022-11-20T03:42:34;99570.00;;;7.80
65569;BMP180;52211;50.154;8.682;2022-11-20T03:45:20;99570.00;;;7.80
65569;BMP180;52211;50.154;8.682;2022-11-20T03:47:49;99563.00;;;7.80
65569;BMP180;52211;50.154;8.682;2022-11-20T03:50:15;99567.00;;;7.70
65569;BMP180;52211;50.154;8.682;2022-11-20T03:52:42;99555.00;;;7.70
65569;BMP180;52211;50.154;8.682;2022-11-20T03:55:09;99554.00;;;7.70
65569;BMP180;52211;50.154;8.682;2022-11-20T03:57:38;99542.00;;;7.70
65569;BMP180;52211;50.154;8.682;2022-11-20T04:00:08;99550.00;;;7.70
65569;BMP180;52211;50.154;8.682;2022-11-20T04:02:35;99549.00;;;7.70
65569;BMP180;52211;50.154;8.682;2022-11-20T04:05:07;99556.00;;;7.70
65569;BMP180;52211;50.154;8.682;2022-11-20T04:07:36;99544.00;;;7.70
65569;BMP180;52211;50.154;8.682;2022-11-20T04:10:04;99529.00;;;7.70
65569;BMP180;52211;50.154;8.682;2022-11-20T04:12:33;99529.00;;;7.70
65569;BMP180;52211;50.154;8.682;2022-11-20T04:15:00;99542.00;;;7.70
65569;BMP180;52211;50.154;8.682;2022-11-20T04:17:32;99564.00;;;7.70
65569;BMP180;52211;50.154;8.682;2022-11-20T04:20:02;99557.00;;;7.70
65569;BMP180;52211;50.154;8.682;2022-11-20T04:22:35;99557.00;;;7.70
65569;BMP180;52211;50.154;8.682;2022-11-20T04:25:07;99537.00;;;7.70
65569;BMP180;52211;50.154;8.682;2022-11-20T04:27:36;99533.00;;;7.70
65569;BMP180;52211;50.154;8.682;2022-11-20T04:30:03;99528.00;;;7.70
65569;BMP180;52211;50.154;8.682;2022-11-20T04:32:32;99525.00;;;7.70
65569;BMP180;52211;50.154;8.682;2022-11-20T04:34:59;99534.00;;;7.70
65569;BMP180;52211;50.154;8.682;2022-11-20T04:37:31;99545.00;;;7.60
65569;BMP180;52211;50.154;8.682;2022-11-20T04:40:00;99538.00;;;7.70
65569;BMP180;52211;50.154;8.682;2022-11-20T04:42:27;99541.00;;;7.70
65569;BMP180;52211;50.154;8.682;2022-11-20T04:44:57;99531.00;;;7.70
65569;BMP180;52211;50.154;8.682;2022-11-20T04:47:26;99533.00;;;7.70
65569;BMP180;52211;50.154;8.682;2022-11-20T04:49:53;99529.00;;;7.70
65569;BMP180;52211;50.154;8.682;2022-11-20T04:52:24;99530.00;;;7.70
65569;BMP180;52211;50.154;8.682;2022-11-20T04:54:56;99528.00;;;7.70
65569;BMP180;52211;50.154;8.682;2022-11-20T04:57:23;99526.00;;;7.80
65569;BMP180;52211;50.154;8.682;2022-11-20T04:59:49;99519.00;;;7.80
65569;BMP180;52211;50.154;8.682;2022-11-20T05:02:19;99517.00;;;7.80
65569;BMP180;52211;50.154;8.682;2022-11-20T05:04:51;99520.00;;;7.80
65569;BMP180;52211;50.154;8.682;2022-11-20T05:07:22;99520.00;;;7.80
65569;BMP180;52211;50.154;8.682;2022-11-20T05:09:51;99523.00;;;7.80
65569;BMP180;52211;50.154;8.682;2022-11-20T05:12:20;99520.00;;;7.80
65569;BMP180;52211;50.154;8.682;2022-11-20T05:14:50;99512.00;;;7.90
65569;BMP180;52211;50.154;8.682;2022-11-20T05:17:17;99516.00;;;7.90
65569;BMP180;52211;50.154;8.682;2022-11-20T05:19:43;99514.00;;;7.90
65569;BMP180;52211;50.154;8.682;2022-11-20T05:22:15;99512.00;;;7.90
65569;BMP180;52211;50.154;8.682;2022-11-20T05:24:46;99517.00;;;7.90
65569;BMP180;52211;50.154;8.682;2022-11-20T05:27:15;99517.00;;;7.90
65569;BMP180;52211;50.154;8.682;2022-11-20T05:29:42;99515.00;;;7.90
65569;BMP180;52211;50.154;8.682;2022-11-20T05:32:09;99514.00;;;7.90
65569;BMP180;52211;50.154;8.682;2022-11-20T05:34:38;99510.00;;;7.90
65569;BMP180;52211;50.154;8.682;2022-11-20T05:37:07;99514.00;;;7.90
65569;BMP180;52211;50.154;8.682;2022-11-20T05:39:38;99521.00;;;7.90
65569;BMP180;52211;50.154;8.682;2022-11-20T05:42:10;99529.00;;;7.90
65569;BMP180;52211;50.154;8.682;2022-11-20T05:45:02;99523.00;;;7.90
65569;BMP180;52211;50.154;8.682;2022-11-20T05:47:33;99524.00;;;7.90
65569;BMP180;52211;50.154;8.682;2022-11-20T05:50:05;99524.00;;;7.90
65569;BMP180;52211;50.154;8.682;2022-11-20T05:52:32;99517.00;;;7.90
65569;BMP180;52211;50.154;8.682;2022-11-20T05:55:04;99529.00;;;8.00
65569;BMP180;52211;50.154;8.682;2022-11-20T05:57:34;99521.00;;;8.00
65569;BMP180;52211;50.154;8.682;2022-11-20T06:00:02;99519.00;;;8.00
65569;BMP180;52211;50.154;8.682;2022-11-20T06:02:35;99513.00;;;8.00
65569;BMP180;52211;50.154;8.682;2022-11-20T06:05:02;99513.00;;;8.00
65569;BMP180;52211;50.154;8.682;2022-11-20T06:07:31;99514.00;;;8.00
65569;BMP180;52211;50.154;8.682;2022-11-20T06:10:01;99506.00;;;8.00
65569;BMP180;52211;50.154;8.682;2022-11-20T06:12:31;99512.00;;;7.90
65569;BMP180;52211;50.154;8.682;2022-11-20T06:14:59;99507.00;;;7.90
65569;BMP180;52211;50.154;8.682;2022-11-20T06:17:26;99519.00;;;7.90
65569;BMP180;52211;50.154;8.682;2022-11-20T06:19:53;99515.00;;;8.00
65569;BMP180;52211;50.154;8.682;2022-11-20T06:22:20;99514.00;;;8.00
65569;BMP180;52211;50.154;8.682;2022-11-20T06:24:49;99521.00;;;8.00
65569;BMP180;52211;50.154;8.682;2022-11-20T06:27:19;99517.00;;;8.00
65569;BMP180;52211;50.154;8.682;2022-11-20T06:29:50;99518.00;;;8.00
65569;BMP180;52211;50.154;8.682;2022-11-20T06:32:17;99519.00;;;8.00
65569;BMP180;52211;50.154;8.682;2022-11-20T06:34:44;99519.00;;;8.00
65569;BMP180;52211;50.154;8.682;2022-11-20T06:37:13;99500.00;;;7.90
65569;BMP180;52211;50.154;8.682;2022-11-20T06:39:42;99500.00;;;7.90
65569;BMP180;52211;50.154;8.682;2022-11-20T06:42:13;99513.00;;;7.90
65569;BMP180;52211;50.154;8.682;2022-11-20T06:44:43;99521.00;;;7.90
65569;BMP180;52211;50.154;8.682;2022-11-20T06:47:09;99517.00;;;8.00
65569;BMP180;52211;50.154;8.682;2022-11-20T06:49:36;99508.00;;;8.00
65569;BMP180;52211;50.154;8.682;2022-11-20T06:52:07;99522.00;;;8.00
65569;BMP180;52211;50.154;8.682;2022-11-20T06:54:38;99527.00;;;8.00
65569;BMP180;52211;50.154;8.682;2022-11-20T06:57:05;99523.00;;;8.00
65569;BMP180;52211;50.154;8.682;2022-11-20T06:59:34;99520.00;;;8.10
65569;BMP180;52211;50.154;8.682;2022-11-20T07:02:11;99515.00;;;8.10
65569;BMP180;52211;50.154;8.682;2022-11-20T07:04:43;99517.00;;;8.10
65569;BMP180;52211;50.154;8.682;2022-11-20T07:07:14;99513.00;;;8.10
65569;BMP180;52211;50.154;8.682;2022-11-20T07:09:46;99514.00;;;8.10
65569;BMP180;52211;50.154;8.682;2022-11-20T07:12:15;99512.00;;;8.10
65569;BMP180;52211;50.154;8.682;2022-11-20T07:14:46;99513.00;;;8.20
65569;BMP180;52211;50.154;8.682;2022-11-20T07:17:16;99504.00;;;8.20
65569;BMP180;52211;50.154;8.682;2022-11-20T07:19:45;99507.00;;;8.20
65569;BMP180;52211;50.154;8.682;2022-11-20T07:22:12;99519.00;;;8.20
65569;BMP180;52211;50.154;8.682;2022-11-20T07:24:41;99507.00;;;8.20
65569;BMP180;52211;50.154;8.682;2022-11-20T07:27:14;99510.00;;;8.20
65569;BMP180;52211;50.154;8.682;2022-11-20T07:29:43;99519.00;;;8.20
65569;BMP180;52211;50.154;8.682;2022-11-20T07:32:12;99522.00;;;8.10
65569;BMP180;52211;50.154;8.682;2022-11-20T07:34:39;99524.00;;;8.10
65569;BMP180;52211;50.154;8.682;2022-11-20T07:37:09;99521.00;;;8.10
65569;BMP180;52211;50.154;8.682;2022-11-20T07:39:38;99525.00;;;8.10
65569;BMP180;52211;50.154;8.682;2022-11-20T07:42:10;99519.00;;;8.10
65569;BMP180;52211;50.154;8.682;2022-11-20T07:44:41;99512.00;;;8.10
65569;BMP180;52211;50.154;8.682;2022-11-20T07:47:10;99515.00;;;8.10
65569;BMP180;52211;50.154;8.682;2022-11-20T07:49:38;99521.00;;;8.10
65569;BMP180;52211;50.154;8.682;2022-11-20T07:52:08;99527.00;;;8.10
65569;BMP180;52211;50.154;8.682;2022-11-20T07:54:39;99532.00;;;8.10
65569;BMP180;52211;50.154;8.682;2022-11-20T07:57:06;99529.00;;;8.10
65569;BMP180;52211;50.154;8.682;2022-11-20T07:59:33;99529.00;;;8.10
65569;BMP180;52211;50.154;8.682;2022-11-20T08:02:00;99530.00;;;8.20
65569;BMP180;52211;50.154;8.682;2022-11-20T08:04:27;99541.00;;;8.20
65569;BMP180;52211;50.154;8.682;2022-11-20T08:06:56;99548.00;;;8.20
65569;BMP180;52211;50.154;8.682;2022-11-20T08:09:28;99551.00;;;8.20
65569;BMP180;52211;50.154;8.682;2022-11-20T08:12:00;99552.00;;;8.30
65569;BMP180;52211;50.154;8.682;2022-11-20T08:14:45;99540.00;;;8.30
65569;BMP180;52211;50.154;8.682;2022-11-20T08:17:18;99542.00;;;8.30
65569;BMP180;52211;50.154;8.682;2022-11-20T08:19:49;99542.00;;;8.30
65569;BMP180;52211;50.154;8.682;2022-11-20T08:22:19;99546.00;;;8.40
65569;BMP180;52211;50.154;8.682;2022-11-20T08:24:51;99553.00;;;8.40
65569;BMP180;52211;50.154;8.682;2022-11-20T08:27:20;99550.00;;;8.50
65569;BMP180;52211;50.154;8.682;2022-11-20T08:29:49;99554.00;;;8.50
65569;BMP180;52211;50.154;8.682;2022-11-20T08:32:21;99555.00;;;8.50
65569;BMP180;52211;50.154;8.682;2022-11-20T08:34:50;99564.00;;;8.60
65569;BMP180;52211;50.154;8.682;2022-11-20T08:37:19;99571.00;;;8.60
65569;BMP180;52211;50.154;8.682;2022-11-20T08:39:46;99567.00;;;8.60
65569;BMP180;52211;50.154;8.682;2022-11-20T08:42:18;99564.00;;;8.60
65569;BMP180;52211;50.154;8.682;2022-11-20T08:44:44;99570.00;;;8.60
65569;BMP180;52211;50.154;8.682;2022-11-20T08:47:11;99564.00;;;8.70
65569;BMP180;52211;50.154;8.682;2022-11-20T08:49:38;99565.00;;;8.70
65569;BMP180;52211;50.154;8.682;2022-11-20T08:52:05;99573.00;;;8.70
65569;BMP180;52211;50.154;8.682;2022-11-20T08:54:32;99571.00;;;8.70
65569;BMP180;52211;50.154;8.682;2022-11-20T08:56:59;99574.00;;;8.70
65569;BMP180;52211;50.154;8.682;2022-11-20T08:59:28;99575.00;;;8.70
65569;BMP180;52211;50.154;8.682;2022-11-20T09:02:15;99562.00;;;8.70
65569;BMP180;52211;50.154;8.682;2022-11-20T09:04:46;99563.00;;;8.80
65569;BMP180;52211;50.154;8.682;2022-11-20T09:07:13;99565.00;;;8.80
65569;BMP180;52211;50.154;8.682;2022-11-20T09:09:43;99563.00;;;8.80
65569;BMP180;52211;50.154;8.682;2022-11-20T09:12:12;99563.00;;;8.80
65569;BMP180;52211;50.154;8.682;2022-11-20T09:14:41;99554.00;;;8.80
65569;BMP180;52211;50.154;8.682;2022-11-20T09:17:10;99560.00;;;8.80
65569;BMP180;52211;50.154;8.682;2022-11-20T09:19:44;99571.00;;;8.90
65569;BMP180;52211;50.154;8.682;2022-11-20T09:22:14;99576.00;;;8.90
65569;BMP180;52211;50.154;8.682;2022-11-20T09:24:43;99580.00;;;8.90
65569;BMP180;52211;50.154;8.682;2022-11-20T09:27:10;99574.00;;;8.90
65569;BMP180;52211;50.154;8.682;2022-11-20T09:29:39;99579.00;;;8.90
65569;BMP180;52211;50.154;8.682;2022-11-20T09:32:06;99583.00;;;9.00
65569;BMP180;52211;50.154;8.682;2022-11-20T09:34:35;99578.00;;;9.00
65569;BMP180;52211;50.154;8.682;2022-11-20T09:37:11;99576.00;;;9.00
65569;BMP180;52211;50.154;8.682;2022-11-20T09:39:41;99570.00;;;9.10
65569;BMP180;52211;50.154;8.682;2022-11-20T09:42:43;99572.00;;;9.10
65569;BMP180;52211;50.154;8.682;2022-11-20T09:51:16;99574.00;;;9.30
65569;BMP180;52211;50.154;8.682;2022-11-20T09:54:19;99565.00;;;9.40
65569;BMP180;52211;50.154;8.682;2022-11-20T09:56:59;99560.00;;;9.50
65569;BMP180;52211;50.154;8.682;2022-11-20T10:02:28;99562.00;;;9.70
65569;BMP180;52211;50.154;8.682;2022-11-20T10:05:35;99550.00;;;9.80
65569;BMP180;52211;50.154;8.682;2022-11-20T10:08:28;99552.00;;;9.90
65569;BMP180;52211;50.154;8.682;2022-11-20T10:14:25;99544.00;;;10.10
65569;BMP180;52211;50.154;8.682;2022-11-20T10:19:45;99538.00;;;10.20
65569;BMP180;52211;50.154;8.682;2022-11-20T10:25:27;99544.00;;;10.20
65569;BMP180;52211;50.154;8.682;2022-11-20T10:28:43;99540.00;;;10.20
65569;BMP180;52211;50.154;8.682;2022-11-20T10:32:13;99544.00;;;10.30
65569;BMP180;52211;50.154;8.682;2022-11-20T10:34:59;99547.00;;;10.30
65569;BMP180;52211;50.154;8.682;2022-11-20T10:37:37;99545.00;;;10.30
65569;BMP180;52211;50.154;8.682;2022-11-20T10:40:38;99537.00;;;10.30
65569;BMP180;52211;50.154;8.682;2022-11-20T10:46:05;99530.00;;;10.20
65569;BMP180;52211;50.154;8.682;2022-11-20T10:48:38;99534.00;;;10.20
65569;BMP180;52211;50.154;8.682;2022-11-20T10:51:37;99529.00;;;10.20
65569;BMP180;52211;50.154;8.682;2022-11-20T10:54:22;99534.00;;;10.30
65569;BMP180;52211;50.154;8.682;2022-11-20T10:56:54;99530.00;;;10.30
65569;BMP180;52211;50.154;8.682;2022-11-20T11:02:23;99522.00;;;10.30
65569;BMP180;52211;50.154;8.682;2022-11-20T11:04:55;99518.00;;;10.30
65569;BMP180;52211;50.154;8.682;2022-11-20T11:07:34;99515.00;;;10.30
65569;BMP180;52211;50.154;8.682;2022-11-20T11:13:27;99515.00;;;10.40
65569;BMP180;52211;50.154;8.682;2022-11-20T11:15:58;99515.00;;;10.40
65569;BMP180;52211;50.154;8.682;2022-11-20T11:19:25;99508.00;;;10.50
65569;BMP180;52211;50.154;8.682;2022-11-20T11:27:14;99505.00;;;10.40
65569;BMP180;52211;50.154;8.682;2022-11-20T11:29:46;99501.00;;;10.50
65569;BMP180;52211;50.154;8.682;2022-11-20T11:32:19;99500.00;;;10.50
65569;BMP180;52211;50.154;8.682;2022-11-20T11:35:02;99494.00;;;10.50
65569;BMP180;52211;50.154;8.682;2022-11-20T11:37:35;99489.00;;;10.50
65569;BMP180;52211;50.154;8.682;2022-11-20T11:40:10;99496.00;;;10.50
65569;BMP180;52211;50.154;8.682;2022-11-20T11:43:04;99488.00;;;10.60
65569;BMP180;52211;50.154;8.682;2022-11-20T11:45:31;99481.00;;;10.60
65569;BMP180;52211;50.154;8.682;2022-11-20T11:48:03;99483.00;;;10.60
65569;BMP180;52211;50.154;8.682;2022-11-20T11:50:34;99473.00;;;10.60
65569;BMP180;52211;50.154;8.682;2022-11-20T11:53:14;99476.00;;;10.60
65569;BMP180;52211;50.154;8.682;2022-11-20T11:56:03;99484.00;;;10.60
65569;BMP180;52211;50.154;8.682;2022-11-20T11:59:00;99476.00;;;10.70
65569;BMP180;52211;50.154;8.682;2022-11-20T12:01:47;99462.00;;;10.70
65569;BMP180;52211;50.154;8.682;2022-11-20T12:13:02;99461.00;;;11.00
65569;BMP180;52211;50.154;8.682;2022-11-20T12:15:44;99467.00;;;11.00
65569;BMP180;52211;50.154;8.682;2022-11-20T12:18:19;99461.00;;;11.00
65569;BMP180;52211;50.154;8.682;2022-11-20T12:27:06;99449.00;;;11.10
65569;BMP180;52211;50.154;8.682;2022-11-20T12:30:07;99457.00;;;11.10
65569;BMP180;52211;50.154;8.682;2022-11-20T12:41:47;99466.00;;;11.20
65569;BMP180;52211;50.154;8.682;2022-11-20T12:54:08;99444.00;;;11.30
65569;BMP180;52211;50.154;8.682;2022-11-20T13:00:06;99435.00;;;11.30
65569;BMP180;52211;50.154;8.682;2022-11-20T13:03:13;99438.00;;;11.40
65569;BMP180;52211;50.154;8.682;2022-11-20T13:08:40;99436.00;;;11.50
65569;BMP180;52211;50.154;8.682;2022-11-20T13:17:24;99417.00;;;11.50
65569;BMP180;52211;50.154;8.682;2022-11-20T13:19:55;99418.00;;;11.50
65569;BMP180;52211;50.154;8.682;2022-11-20T13:22:43;99418.00;;;11.50
65569;BMP180;52211;50.154;8.682;2022-11-20T13:25:30;99406.00;;;11.60
65569;BMP180;52211;50.154;8.682;2022-11-20T13:28:26;99405.00;;;11.60
65569;BMP180;52211;50.154;8.682;2022-11-20T13:30:56;99412.00;;;11.60
65569;BMP180;52211;50.154;8.682;2022-11-20T13:33:32;99401.00;;;11.60
65569;BMP180;52211;50.154;8.682;2022-11-20T13:36:05;99385.00;;;11.60
65569;BMP180;52211;50.154;8.682;2022-11-20T13:39:02;99387.00;;;11.60
65569;BMP180;52211;50.154;8.682;2022-11-20T13:41:36;99381.00;;;11.60
65569;BMP180;52211;50.154;8.682;2022-11-20T13:46:41;99384.00;;;11.60
65569;BMP180;52211;50.154;8.682;2022-11-20T13:49:42;99386.00;;;11.70
65569;BMP180;52211;50.154;8.682;2022-11-20T14:01:00;99387.00;;;11.60
65569;BMP180;52211;50.154;8.682;2022-11-20T14:03:35;99378.00;;;11.60
65569;BMP180;52211;50.154;8.682;2022-11-20T14:06:28;99379.00;;;11.60
65569;BMP180;52211;50.154;8.682;2022-11-20T14:08:59;99379.00;;;11.60
65569;BMP180;52211;50.154;8.682;2022-11-20T14:11:31;99381.00;;;11.60
65569;BMP180;52211;50.154;8.682;2022-11-20T14:14:02;99372.00;;;11.60
65569;BMP180;52211;50.154;8.682;2022-11-20T14:16:36;99376.00;;;11.60
65569;BMP180;52211;50.154;8.682;2022-11-20T14:22:20;99367.00;;;11.60
65569;BMP180;52211;50.154;8.682;2022-11-20T14:27:49;99358.00;;;11.60
65569;BMP180;52211;50.154;8.682;2022-11-20T14:30:27;99349.00;;;11.50
65569;BMP180;52211;50.154;8.682;2022-11-20T14:33:03;99348.00;;;11.50
65569;BMP180;52211;50.154;8.682;2022-11-20T14:35:37;99340.00;;;11.50
65569;BMP180;52211;50.154;8.682;2022-11-20T14:38:13;99338.00;;;11.50
65569;BMP180;52211;50.154;8.682;2022-11-20T14:40:45;99343.00;;;11.50
65569;BMP180;52211;50.154;8.682;2022-11-20T14:45:59;99343.00;;;11.50
65569;BMP180;52211;50.154;8.682;2022-11-20T14:49:01;99344.00;;;11.40
65569;BMP180;52211;50.154;8.682;2022-11-20T14:54:30;99342.00;;;11.40
65569;BMP180;52211;50.154;8.682;2022-11-20T14:57:01;99332.00;;;11.40
65569;BMP180;52211;50.154;8.682;2022-11-20T14:59:34;99326.00;;;11.40
65569;BMP180;52211;50.154;8.682;2022-11-20T15:02:10;99322.00;;;11.40
65569;BMP180;52211;50.154;8.682;2022-11-20T15:05:04;99323.00;;;11.40
65569;BMP180;52211;50.154;8.682;2022-11-20T15:07:38;99322.00;;;11.40
65569;BMP180;52211;50.154;8.682;2022-11-20T15:10:20;99317.00;;;11.40
65569;BMP180;52211;50.154;8.682;2022-11-20T15:13:25;99316.00;;;11.40
65569;BMP180;52211;50.154;8.682;2022-11-20T15:15:58;99308.00;;;11.40
65569;BMP180;52211;50.154;8.682;2022-11-20T15:18:36;99308.00;;;11.40
65569;BMP180;52211;50.154;8.682;2022-11-20T15:21:21;99305.00;;;11.40
65569;BMP180;52211;50.154;8.682;2022-11-20T15:23:48;99297.00;;;11.40
65569;BMP180;52211;50.154;8.682;2022-11-20T15:26:26;99298.00;;;11.40
65569;BMP180;52211;50.154;8.682;2022-11-20T15:28:58;99294.00;;;11.40
65569;BMP180;52211;50.154;8.682;2022-11-20T15:31:26;99295.00;;;11.40
65569;BMP180;52211;50.154;8.682;2022-11-20T15:33:58;99298.00;;;11.40
65569;BMP180;52211;50.154;8.682;2022-11-20T15:36:25;99289.00;;;11.40
65569;BMP180;52211;50.154;8.682;2022-11-20T15:38:52;99288.00;;;11.40
65569;BMP180;52211;50.154;8.682;2022-11-20T15:41:19;99290.00;;;11.40
65569;BMP180;52211;50.154;8.682;2022-11-20T15:43:48;99289.00;;;11.40
65569;BMP180;52211;50.154;8.682;2022-11-20T15:46:25;99282.00;;;11.30
65569;BMP180;52211;50.154;8.682;2022-11-20T15:48:56;99289.00;;;11.40
65569;BMP180;52211;50.154;8.682;2022-11-20T15:54:13;99279.00;;;11.40
65569;BMP180;52211;50.154;8.682;2022-11-20T15:56:41;99284.00;;;11.40
65569;BMP180;52211;50.154;8.682;2022-11-20T15:59:10;99265.00;;;11.40
65569;BMP180;52211;50.154;8.682;2022-11-20T16:01:37;99270.00;;;11.40
65569;BMP180;52211;50.154;8.682;2022-11-20T16:04:10;99266.00;;;11.40
65569;BMP180;52211;50.154;8.682;2022-11-20T16:06:36;99265.00;;;11.50
65569;BMP180;52211;50.154;8.682;2022-11-20T16:09:03;99257.00;;;11.50
65569;BMP180;52211;50.154;8.682;2022-11-20T16:11:34;99250.00;;;11.50
65569;BMP180;52211;50.154;8.682;2022-11-20T16:14:06;99250.00;;;11.50
65569;BMP180;52211;50.154;8.682;2022-11-20T16:16:52;99256.00;;;11.50
65569;BMP180;52211;50.154;8.682;2022-11-20T16:19:21;99247.00;;;11.50
65569;BMP180;52211;50.154;8.682;2022-11-20T16:21:50;99244.00;;;11.50
65569;BMP180;52211;50.154;8.682;2022-11-20T16:24:28;99239.00;;;11.50
65569;BMP180;52211;50.154;8.682;2022-11-20T16:27:00;99241.00;;;11.50
65569;BMP180;52211;50.154;8.682;2022-11-20T16:29:30;99237.00;;;11.50
65569;BMP180;52211;50.154;8.682;2022-11-20T16:31:59;99226.00;;;11.50
65569;BMP180;52211;50.154;8.682;2022-11-20T16:34:26;99224.00;;;11.50
65569;BMP180;52211;50.154;8.682;2022-11-20T16:36:56;99216.00;;;11.50
65569;BMP180;52211;50.154;8.682;2022-11-20T16:39:26;99205.00;;;11.50
65569;BMP180;52211;50.154;8.682;2022-11-20T16:41:52;99204.00;;;11.50
65569;BMP180;52211;50.154;8.682;2022-11-20T16:44:20;99204.00;;;11.50